Search for airport 
image banner adimage banner adimage banner ad
image banner ad

9PS4 - Pheasant Run

Located in Easton-Forks Township, United States

ICAO - 9PS4, IATA -

Data provided by Airmate  

General information

Coordinates: N40°44'58" W75°12'37"
Elevation is 400 feet MSL.
Magnetic variation is -12° East
View others Airports in Pennsylvania

Operational data

Special qualification required
Current time UTC:
Current local time:
Weather at : KABE - Lehigh Valley Intl ( 22 km )
METAR: KABE 150551Z AUTO 00000KT 10SM CLR 16/16 A2979 RMK AO2 SLP084 60005 T01610156 10200 20161 55001
TAF: KABE 150523Z 1506/1606 VRB03KT P6SM BKN080 TEMPO 1508/1512 2SM BR OVC015 FM151400 29008G16KT P6SM BKN050 FM152300 31004KT P6SM SCT050
View NOTAMs / SUP AIP / TFR affecting this airport [VIEW]
Communications frequencies: [VIEW]

Runways:

Airport contact information

Address: Easton-Forks Township United States

Satellite view of 9PS4